Flight Track Log - Related Links

Times and Time Zones

All times are in EDT time to prevent confusion due to time zone crossing. See the SVA1480 flight status page for this flight to view local times or setup timezone preferences in your user account.

Time Position Orientation Groundspeed Altitude Reporting Facility
EDT Latitude Longitude Course Direction KTS MPH feet Rate Location/Type
Thu 12:53:00 AM 27.9980 46.1839 171° South  Level Estimated
Thu 12:54:00 AM 27.9137 46.1986 171° South  Level Estimated
Thu 12:55:00 AM 27.8293 46.2132 171° South  Level Estimated
Thu 12:56:00 AM 27.7450 46.2279 171° South  Level Estimated
Thu 12:57:00 AM 27.6607 46.2424 171° South  Level Estimated
Thu 12:58:00 AM 27.5764 46.2570 171° South  Level Estimated
Thu 12:59:00 AM 27.4921 46.2715 171° South  Level Estimated
Thu 01:00:00 AM 27.4077 46.2861 171° South  Level Estimated
Thu 01:01:00 AM 27.3234 46.3006 171° South  Level Estimated
Thu 01:02:00 AM 27.2391 46.3151 171° South  Level Estimated
Thu 01:03:00 AM 27.1548 46.3295 171° South  Level Estimated
Thu 01:04:00 AM 27.0704 46.3439 171° South  Level Estimated
Thu 01:05:00 AM 26.9861 46.3584 171° South  Level Estimated
Thu 01:06:00 AM 26.9018 46.3728 171° South  Level Estimated
Thu 01:07:00 AM 26.8175 46.3871 171° South  Level Estimated
Thu 01:08:00 AM 26.7331 46.4015 171° South  Level Estimated
Thu 01:09:00 AM 26.6488 46.4158 171° South  Level Estimated
Thu 01:10:00 AM 26.5645 46.4301 171° South  Level Estimated
Thu 01:11:00 AM 26.4801 46.4444 171° South  Level Estimated
Thu 01:12:00 AM 26.3958 46.4587 171° South  Level Estimated
Thu 01:13:00 AM 26.3114 46.4729 171° South  Level Estimated
Thu 01:14:00 AM 26.2271 46.4871 171° South  Level Estimated
Thu 01:15:00 AM 26.1428 46.5013 171° South  Level Estimated
Thu 01:16:00 AM 26.0584 46.5155 171° South  Level Estimated
Thu 01:17:00 AM 25.9741 46.5297 171° South  Level Estimated
Thu 01:18:00 AM 25.8897 46.5438 171° South  Level Estimated
Thu 01:19:00 AM 25.8054 46.5579 171° South  Level Estimated
Thu 01:20:00 AM 25.7210 46.5721 171° South  Level Estimated
Thu 01:21:00 AM 25.6367 46.5861 171° South  Level Estimated
Thu 01:22:00 AM 25.5523 46.6002 171° South  Level Estimated
Thu 01:23:00 AM 25.4680 46.6142 171° South  Level Estimated
Thu 01:24:00 AM 25.3836 46.6283 171° South  Level Estimated
Thu 01:25:00 AM 25.2992 46.6423 171° South  Level Estimated
Thu 01:26:00 AM 25.2149 46.6562 171° South  Level Estimated
Thu 01:27:00 AM 25.1305 46.6702 171° South  Level Estimated
Thu 01:28:00 AM 25.0462 46.6842 171° South  Level Estimated
Thu 01:29:00 AM 24.9618 46.6981 171° South  Level Estimated
Thu 01:30:00 AM 24.9576 46.6988 171° South  Level Estimated

Login

Don't have an account? Register now (free) for customized features, flight alerts, and more!